createdAt,value
2023-02-21T00:01:08.723Z,13.26
2023-02-21T00:06:29.742Z,13.07
2023-02-21T00:11:52.610Z,15.41
2023-02-21T00:17:20.297Z,17.31
2023-02-21T00:22:41.053Z,15.84
2023-02-21T00:28:04.084Z,16.44
2023-02-21T00:33:31.043Z,18.19
2023-02-21T00:38:52.139Z,19.95
2023-02-21T00:44:15.314Z,17.33
2023-02-21T00:49:40.201Z,17.99
2023-02-21T00:55:00.918Z,18.67
2023-02-21T01:00:27.115Z,19.58
2023-02-21T01:05:52.670Z,19.34
2023-02-21T01:11:16.039Z,18.41
2023-02-21T01:16:40.181Z,20.48
2023-02-21T01:22:02.436Z,21.14
2023-02-21T01:27:28.044Z,15.64
2023-02-21T01:32:51.516Z,18.33
2023-02-21T01:38:13.643Z,16.86
2023-02-21T01:43:37.717Z,20.87
2023-02-21T01:49:02.355Z,20.39
2023-02-21T01:54:26.679Z,22.06
2023-02-21T01:59:47.476Z,14.96
2023-02-21T02:05:09.965Z,9.58
2023-02-21T02:10:35.014Z,6.34
2023-02-21T02:15:44.986Z,4.52
2023-02-21T02:21:14.857Z,12.82
2023-02-21T02:26:39.308Z,18.12
2023-02-21T02:32:12.075Z,19.96
2023-02-21T02:37:21.498Z,19.64
2023-02-21T02:42:33.166Z,10.54
2023-02-21T02:47:39.473Z,6.39
2023-02-21T02:52:53.205Z,5.27
2023-02-21T02:57:59.784Z,5.94
2023-02-21T03:03:21.766Z,6.04
2023-02-21T03:08:33.129Z,4.34
2023-02-21T03:13:43.812Z,3.16
2023-02-21T03:18:50.339Z,2.66
2023-02-21T03:23:59.729Z,3.32
2023-02-21T03:29:06.069Z,3.00
2023-02-21T03:34:15.061Z,3.18
2023-02-21T03:39:22.145Z,3.88
2023-02-21T03:44:26.045Z,3.50
2023-02-21T03:49:29.522Z,3.10
2023-02-21T03:54:39.519Z,3.71
2023-02-21T03:59:43.945Z,3.50
2023-02-21T04:04:49.994Z,4.44
2023-02-21T04:09:57.721Z,4.42
2023-02-21T04:15:12.042Z,4.62
2023-02-21T04:20:18.847Z,9.33
2023-02-21T04:25:28.706Z,12.71
2023-02-21T04:30:39.025Z,16.88
2023-02-21T04:35:42.768Z,24.73
2023-02-21T04:40:54.402Z,17.18
2023-02-21T04:45:58.152Z,15.84
2023-02-21T04:51:15.180Z,19.41
2023-02-21T04:56:22.062Z,18.68
2023-02-21T05:01:28.860Z,19.87
2023-02-21T05:06:33.061Z,20.65
2023-02-21T05:11:38.052Z,21.21
2023-02-21T05:16:41.902Z,27.16
2023-02-21T05:21:45.381Z,20.57
2023-02-21T05:26:53.005Z,18.99
2023-02-21T05:31:56.535Z,20.78
2023-02-21T05:37:00.051Z,21.74
2023-02-21T05:42:04.924Z,29.53
2023-02-21T05:47:11.329Z,23.54
2023-02-21T05:52:16.974Z,24.13
2023-02-21T05:57:21.956Z,24.92
2023-02-21T06:02:27.372Z,23.30
2023-02-21T06:07:33.279Z,32.94
2023-02-21T06:12:40.390Z,23.92
2023-02-21T06:17:44.108Z,23.84
2023-02-21T06:22:48.130Z,26.92
2023-02-21T06:27:52.884Z,26.93
2023-02-21T06:32:56.575Z,25.91
2023-02-21T06:38:03.113Z,24.76
2023-02-21T06:43:08.114Z,27.57
2023-02-21T06:48:15.244Z,26.88
2023-02-21T06:53:21.362Z,27.19
2023-02-21T06:58:26.110Z,23.82
2023-02-21T07:03:29.691Z,31.85
2023-02-21T07:08:33.497Z,25.88
2023-02-21T07:13:38.444Z,21.35
2023-02-21T07:18:46.456Z,19.89
2023-02-21T07:23:50.054Z,28.26
2023-02-21T07:28:57.395Z,25.39
2023-02-21T07:34:01.141Z,27.40
2023-02-21T07:39:04.728Z,27.37
2023-02-21T07:44:10.204Z,26.31
2023-02-21T07:49:13.657Z,31.98
2023-02-21T07:54:17.221Z,28.01
2023-02-21T07:59:22.112Z,23.96
2023-02-21T08:04:25.818Z,27.20
2023-02-21T08:09:32.194Z,27.08
2023-02-21T08:14:36.984Z,34.28
2023-02-21T08:19:40.417Z,28.23
2023-02-21T08:24:43.954Z,25.04
2023-02-21T08:29:50.517Z,19.91
2023-02-21T08:34:54.216Z,22.08
2023-02-21T08:39:57.704Z,23.11
2023-02-21T08:45:02.744Z,24.71
2023-02-21T08:50:06.700Z,24.86
2023-02-21T08:55:10.210Z,27.20
2023-02-21T09:00:16.851Z,26.63
2023-02-21T09:05:24.484Z,28.02
2023-02-21T09:10:34.045Z,24.80
2023-02-21T09:15:38.942Z,28.13
2023-02-21T09:20:42.910Z,28.95
2023-02-21T09:25:46.577Z,25.81
2023-02-21T09:30:52.153Z,28.83
2023-02-21T09:35:55.711Z,26.78
2023-02-21T09:41:03.033Z,25.06
2023-02-21T09:46:12.621Z,24.46
2023-02-21T09:51:16.694Z,24.60
2023-02-21T09:56:28.253Z,24.72
2023-02-21T10:01:45.437Z,19.17
2023-02-21T10:06:54.024Z,18.24
2023-02-21T10:12:06.785Z,21.34
2023-02-21T10:17:19.159Z,21.54
2023-02-21T10:22:27.381Z,25.51
2023-02-21T10:27:34.518Z,26.16
2023-02-21T10:32:40.029Z,25.41
2023-02-21T10:37:47.445Z,23.73
2023-02-21T10:42:54.575Z,30.77
2023-02-21T10:48:02.056Z,25.92
2023-02-21T10:53:05.675Z,26.42
2023-02-21T10:58:23.290Z,27.38
2023-02-21T11:03:28.396Z,30.02
2023-02-21T11:08:36.847Z,34.70
2023-02-21T11:13:40.370Z,36.36
2023-02-21T11:18:47.617Z,31.91
2023-02-21T11:23:59.082Z,22.07
2023-02-21T11:29:09.922Z,21.93
2023-02-21T11:34:19.643Z,23.25
2023-02-21T11:39:28.026Z,25.13
2023-02-21T11:44:34.143Z,24.28
2023-02-21T11:49:48.859Z,24.07
2023-02-21T11:54:54.037Z,23.84
2023-02-21T12:00:08.261Z,23.23
2023-02-21T12:05:29.677Z,23.11
2023-02-21T12:10:46.252Z,20.25
2023-02-21T12:15:56.458Z,24.23
2023-02-21T12:21:27.039Z,24.29
2023-02-21T12:26:45.670Z,22.52
2023-02-21T12:31:58.491Z,23.61
2023-02-21T12:37:10.419Z,21.92
2023-02-21T12:42:28.211Z,23.36
2023-02-21T12:47:36.938Z,26.29
2023-02-21T12:52:51.014Z,20.95
2023-02-21T12:58:00.144Z,32.04
2023-02-21T13:03:10.818Z,23.32
2023-02-21T13:08:21.847Z,9.90
2023-02-21T13:13:28.181Z,8.84
2023-02-21T13:18:34.469Z,9.21
2023-02-21T13:23:44.784Z,8.10
2023-02-21T13:28:53.591Z,10.20
2023-02-21T13:33:58.779Z,10.34
2023-02-21T13:39:13.104Z,8.89
2023-02-21T13:44:20.855Z,10.22
2023-02-21T13:49:39.339Z,12.54
2023-02-21T13:54:57.657Z,14.94
2023-02-21T14:00:23.469Z,24.53
2023-02-21T14:05:28.136Z,28.91
2023-02-21T14:10:34.906Z,16.75
2023-02-21T14:15:44.735Z,13.23
2023-02-21T14:20:51.081Z,10.57
2023-02-21T14:26:01.245Z,12.67
2023-02-21T14:31:06.154Z,12.01
2023-02-21T14:36:15.204Z,15.94
2023-02-21T14:41:39.867Z,16.44
2023-02-21T14:46:57.832Z,14.54
2023-02-21T14:52:27.366Z,13.71
2023-02-21T14:57:53.849Z,13.78
2023-02-21T15:03:05.958Z,13.27
2023-02-21T15:08:17.157Z,13.64
2023-02-21T15:13:22.730Z,12.89
2023-02-21T15:18:28.751Z,12.59
2023-02-21T15:23:32.588Z,12.44
2023-02-21T15:28:36.003Z,13.46
2023-02-21T15:33:42.452Z,16.31
2023-02-21T15:38:48.981Z,27.82
2023-02-21T15:43:59.666Z,48.68
2023-02-21T15:49:06.938Z,30.66
2023-02-21T15:54:24.387Z,25.19
2023-02-21T15:59:29.246Z,25.01
2023-02-21T16:04:37.593Z,25.08
2023-02-21T16:09:47.734Z,25.00
2023-02-21T16:14:59.140Z,26.35
2023-02-21T16:20:16.804Z,24.85
2023-02-21T16:25:22.503Z,28.37
2023-02-21T16:30:29.360Z,27.21
2023-02-21T16:35:36.514Z,25.12
2023-02-21T16:40:39.880Z,30.46
2023-02-21T16:45:45.598Z,25.22
2023-02-21T16:50:51.486Z,26.07
2023-02-21T16:55:55.441Z,27.46
2023-02-21T17:01:00.844Z,29.01
2023-02-21T17:06:06.386Z,44.29
2023-02-21T17:11:09.964Z,28.14
2023-02-21T17:16:15.665Z,36.14
2023-02-21T17:21:20.909Z,27.99
2023-02-21T17:26:24.505Z,29.38
2023-02-21T17:31:28.268Z,27.07
2023-02-21T17:36:33.189Z,30.24
2023-02-21T17:41:36.703Z,39.08
2023-02-21T17:46:40.161Z,38.67
2023-02-21T17:51:45.031Z,39.53
2023-02-21T17:56:51.284Z,40.17
2023-02-21T18:01:54.846Z,32.11
2023-02-21T18:06:59.680Z,28.51
2023-02-21T18:12:04.461Z,27.87
2023-02-21T18:17:09.950Z,41.53
2023-02-21T18:22:14.867Z,17.27
2023-02-21T18:27:18.273Z,15.25
2023-02-21T18:32:21.731Z,12.76
2023-02-21T18:37:26.700Z,13.74
2023-02-21T18:42:30.107Z,13.44
2023-02-21T18:47:36.278Z,16.33
2023-02-21T18:52:41.396Z,13.97
2023-02-21T18:57:45.135Z,15.08
2023-02-21T19:02:50.790Z,14.95
2023-02-21T19:07:55.758Z,26.42
2023-02-21T19:13:02.126Z,26.84
2023-02-21T19:18:05.752Z,29.89
2023-02-21T19:23:10.706Z,40.69
2023-02-21T19:28:14.233Z,32.59
2023-02-21T19:33:17.652Z,43.61
2023-02-21T19:38:22.376Z,24.75
2023-02-21T19:43:28.302Z,23.96
2023-02-21T19:48:31.803Z,23.43
2023-02-21T19:53:36.582Z,44.68
2023-02-21T19:58:40.218Z,29.42
2023-02-21T20:03:44.444Z,24.68
2023-02-21T20:08:49.230Z,20.53
2023-02-21T20:13:52.649Z,22.14
2023-02-21T20:18:59.021Z,27.54
2023-02-21T20:24:08.285Z,29.48
2023-02-21T20:29:11.672Z,29.88
2023-02-21T20:34:15.141Z,26.50
2023-02-21T20:39:22.655Z,28.74
2023-02-21T20:44:28.824Z,28.09
2023-02-21T20:49:35.332Z,31.01
2023-02-21T20:54:40.164Z,30.22
2023-02-21T20:59:43.601Z,26.15
2023-02-21T21:04:48.288Z,34.89
2023-02-21T21:09:53.262Z,30.27
2023-02-21T21:14:56.917Z,25.66
2023-02-21T21:20:00.477Z,27.01
2023-02-21T21:25:06.000Z,28.29
2023-02-21T21:30:12.437Z,26.10
2023-02-21T21:35:17.133Z,22.96
2023-02-21T21:40:26.794Z,21.86
2023-02-21T21:45:30.664Z,22.00
2023-02-21T21:50:34.077Z,22.80
2023-02-21T21:55:41.262Z,24.13
2023-02-21T22:00:50.371Z,28.18
2023-02-21T22:05:56.194Z,24.78
2023-02-21T22:11:04.175Z,23.05
2023-02-21T22:16:09.896Z,22.21
2023-02-21T22:21:14.221Z,23.70
2023-02-21T22:26:22.600Z,23.38
2023-02-21T22:31:27.204Z,22.18
2023-02-21T22:36:31.598Z,23.64
2023-02-21T22:41:36.866Z,23.87
2023-02-21T22:46:41.961Z,26.22
2023-02-21T22:51:45.523Z,25.71
2023-02-21T22:56:52.531Z,24.85
2023-02-21T23:01:58.520Z,25.19
2023-02-21T23:07:02.426Z,22.97
2023-02-21T23:12:09.916Z,23.50
2023-02-21T23:17:13.291Z,22.15
2023-02-21T23:22:16.841Z,23.78
2023-02-21T23:27:21.623Z,24.74
2023-02-21T23:32:27.351Z,24.39
2023-02-21T23:37:32.912Z,22.73
2023-02-21T23:42:40.975Z,25.29
2023-02-21T23:47:44.685Z,27.08
2023-02-21T23:52:49.181Z,29.53
2023-02-21T23:57:59.902Z,27.30
